createdAt,value
2022-12-15T00:02:21.023Z,27.73
2022-12-15T00:05:06.666Z,30.20
2022-12-15T00:07:52.348Z,29.40
2022-12-15T00:10:37.628Z,29.33
2022-12-15T00:13:29.874Z,30.40
2022-12-15T00:16:15.795Z,30.73
2022-12-15T00:19:01.249Z,30.13
2022-12-15T00:21:46.848Z,30.40
2022-12-15T00:24:32.111Z,30.70
2022-12-15T00:27:17.354Z,28.50
2022-12-15T00:30:02.680Z,28.33
2022-12-15T00:32:48.269Z,31.03
2022-12-15T00:35:33.639Z,29.50
2022-12-15T00:38:28.714Z,29.10
2022-12-15T00:40:59.263Z,28.17
2022-12-15T00:43:31.362Z,28.27
2022-12-15T00:46:17.458Z,28.73
2022-12-15T00:48:44.386Z,29.00
2022-12-15T00:51:11.522Z,29.47
2022-12-15T00:53:57.014Z,28.53
2022-12-15T00:56:42.716Z,27.03
2022-12-15T00:59:27.860Z,28.30
2022-12-15T01:02:13.255Z,29.80
2022-12-15T01:04:58.869Z,26.90
2022-12-15T01:07:44.280Z,28.20
2022-12-15T01:10:35.110Z,26.43
2022-12-15T01:13:22.268Z,25.73
2022-12-15T01:16:07.870Z,24.97
2022-12-15T01:18:53.230Z,25.43
2022-12-15T01:21:24.302Z,25.30
2022-12-15T01:23:51.777Z,27.03
2022-12-15T01:26:18.420Z,26.77
2022-12-15T01:28:45.031Z,27.67
2022-12-15T01:31:12.161Z,25.50
2022-12-15T01:33:39.807Z,26.10
2022-12-15T01:36:07.138Z,26.33
2022-12-15T01:38:33.984Z,26.93
2022-12-15T01:41:07.195Z,26.77
2022-12-15T01:43:37.931Z,25.57
2022-12-15T01:46:10.305Z,26.47
2022-12-15T01:48:41.665Z,25.80
2022-12-15T01:51:32.187Z,26.23
2022-12-15T01:54:04.859Z,26.60
2022-12-15T01:56:37.959Z,25.60
2022-12-15T01:59:09.228Z,26.23
2022-12-15T02:01:36.081Z,26.07
2022-12-15T02:04:03.661Z,26.97
2022-12-15T02:06:30.580Z,24.13
2022-12-15T02:08:59.567Z,24.77
2022-12-15T02:11:26.083Z,26.10
2022-12-15T02:14:04.652Z,24.80
2022-12-15T02:16:55.573Z,26.13
2022-12-15T02:19:37.131Z,25.37
2022-12-15T02:22:23.370Z,26.70
2022-12-15T02:25:01.209Z,24.80
2022-12-15T02:27:59.213Z,27.00
2022-12-15T02:30:38.083Z,24.67
2022-12-15T02:33:04.858Z,24.80
2022-12-15T02:35:56.471Z,24.60
2022-12-15T02:38:38.325Z,24.17
2022-12-15T02:41:06.672Z,23.67
2022-12-15T02:43:37.027Z,25.00
2022-12-15T02:46:25.113Z,25.30
2022-12-15T02:49:00.554Z,25.83
2022-12-15T02:52:10.472Z,25.37
2022-12-15T02:55:05.987Z,24.70
2022-12-15T02:57:44.800Z,25.57
2022-12-15T03:00:12.749Z,26.30
2022-12-15T03:02:44.144Z,26.80
2022-12-15T03:05:13.147Z,24.83
2022-12-15T03:07:42.693Z,25.63
2022-12-15T03:10:11.873Z,25.23
2022-12-15T03:12:38.717Z,25.13
2022-12-15T03:15:05.970Z,24.43
2022-12-15T03:17:32.787Z,26.30
2022-12-15T03:19:59.561Z,25.57
2022-12-15T03:22:26.347Z,25.97
2022-12-15T03:24:52.929Z,26.10
2022-12-15T03:27:19.755Z,25.53
2022-12-15T03:29:46.353Z,25.03
2022-12-15T03:32:13.013Z,27.57
2022-12-15T03:34:39.806Z,26.07
2022-12-15T03:37:06.419Z,28.00
2022-12-15T03:39:33.069Z,25.67
2022-12-15T03:41:59.645Z,26.57
2022-12-15T03:44:26.249Z,26.37
2022-12-15T03:46:52.886Z,26.17
2022-12-15T03:49:19.706Z,24.77
2022-12-15T03:51:46.276Z,25.80
2022-12-15T03:54:14.017Z,26.23
2022-12-15T03:56:40.681Z,26.80
2022-12-15T03:59:07.254Z,25.30
2022-12-15T04:01:36.440Z,24.63
2022-12-15T04:04:04.534Z,25.23
2022-12-15T04:06:31.715Z,23.50
2022-12-15T04:08:58.454Z,25.70
2022-12-15T04:11:25.289Z,23.03
2022-12-15T04:13:51.889Z,23.60
2022-12-15T04:16:20.356Z,24.57
2022-12-15T04:19:07.547Z,24.60
2022-12-15T04:21:34.338Z,23.80
2022-12-15T04:24:19.628Z,23.67
2022-12-15T04:27:04.974Z,24.37
2022-12-15T04:29:50.069Z,22.97
2022-12-15T04:32:35.163Z,24.57
2022-12-15T04:35:20.325Z,24.47
2022-12-15T04:38:05.559Z,24.37
2022-12-15T04:40:50.788Z,23.30
2022-12-15T04:43:35.977Z,24.53
2022-12-15T04:46:21.185Z,24.83
2022-12-15T04:49:06.476Z,23.17
2022-12-15T04:51:52.360Z,23.07
2022-12-15T04:54:37.677Z,23.20
2022-12-15T04:57:22.542Z,25.50
2022-12-15T05:00:07.389Z,23.13
2022-12-15T05:02:52.688Z,24.97
2022-12-15T05:05:37.797Z,24.47
2022-12-15T05:08:23.297Z,23.40
2022-12-15T05:11:08.205Z,25.80
2022-12-15T05:13:53.291Z,27.60
2022-12-15T05:16:38.552Z,24.60
2022-12-15T05:19:23.626Z,25.40
2022-12-15T05:22:08.541Z,26.07
2022-12-15T05:24:53.382Z,25.70
2022-12-15T05:27:38.553Z,25.97
2022-12-15T05:30:24.402Z,25.50
2022-12-15T05:32:51.031Z,25.33
2022-12-15T05:35:17.610Z,25.60
2022-12-15T05:37:44.201Z,26.47
2022-12-15T05:40:11.437Z,25.90
2022-12-15T05:42:38.023Z,25.97
2022-12-15T05:45:05.389Z,25.60
2022-12-15T05:47:32.022Z,25.60
2022-12-15T05:49:58.617Z,26.90
2022-12-15T05:52:25.453Z,27.90
2022-12-15T05:54:52.054Z,28.80
2022-12-15T05:57:18.643Z,26.80
2022-12-15T05:59:45.242Z,24.93
2022-12-15T06:02:11.955Z,25.40
2022-12-15T06:04:38.684Z,27.37
2022-12-15T06:07:05.280Z,26.23
2022-12-15T06:09:31.927Z,25.63
2022-12-15T06:11:58.489Z,25.77
2022-12-15T06:14:25.430Z,27.53
2022-12-15T06:16:52.241Z,26.77
2022-12-15T06:19:20.049Z,27.37
2022-12-15T06:21:47.770Z,25.83
2022-12-15T06:24:14.482Z,27.03
2022-12-15T06:26:41.478Z,26.67
2022-12-15T06:29:10.571Z,25.93
2022-12-15T06:31:38.278Z,27.77
2022-12-15T06:34:06.742Z,28.47
2022-12-15T06:36:33.387Z,29.90
2022-12-15T06:39:01.745Z,26.73
2022-12-15T06:41:30.445Z,29.43
2022-12-15T06:43:58.074Z,26.87
2022-12-15T06:46:26.610Z,27.80
2022-12-15T06:48:53.599Z,26.73
2022-12-15T06:51:20.608Z,28.20
2022-12-15T06:53:53.915Z,27.50
2022-12-15T06:56:30.680Z,26.43
2022-12-15T06:59:00.497Z,27.30
2022-12-15T07:01:27.589Z,26.50
2022-12-15T07:03:55.411Z,26.43
2022-12-15T07:06:22.827Z,25.17
2022-12-15T07:08:56.671Z,26.37
2022-12-15T07:11:23.910Z,26.53
2022-12-15T07:13:52.303Z,26.60
2022-12-15T07:16:20.235Z,28.00
2022-12-15T07:18:47.029Z,27.37
2022-12-15T07:21:13.616Z,25.73
2022-12-15T07:23:54.278Z,26.80
2022-12-15T07:26:21.819Z,27.57
2022-12-15T07:28:48.422Z,28.00
2022-12-15T07:31:15.686Z,27.20
2022-12-15T07:33:42.864Z,26.60
2022-12-15T07:36:10.050Z,26.57
2022-12-15T07:38:37.026Z,26.20
2022-12-15T07:41:05.633Z,24.87
2022-12-15T07:43:32.697Z,25.83
2022-12-15T07:46:01.230Z,26.77
2022-12-15T07:48:27.915Z,26.47
2022-12-15T07:51:05.081Z,25.67
2022-12-15T07:53:34.466Z,25.53
2022-12-15T07:56:10.404Z,25.37
2022-12-15T07:58:38.617Z,26.20
2022-12-15T08:01:08.294Z,26.03
2022-12-15T08:03:37.693Z,25.23
2022-12-15T08:06:10.173Z,24.17
2022-12-15T08:08:37.102Z,24.67
2022-12-15T08:11:06.045Z,22.97
2022-12-15T08:16:20.679Z,24.03
2022-12-15T08:18:47.306Z,24.53
2022-12-15T08:21:14.596Z,24.00
2022-12-15T08:23:41.682Z,24.55
2022-12-15T08:26:11.657Z,23.40
2022-12-15T08:28:40.478Z,23.58
2022-12-15T08:31:16.907Z,23.50
2022-12-15T08:33:44.807Z,22.38
2022-12-15T08:36:13.926Z,21.38
2022-12-15T08:38:41.739Z,23.63
2022-12-15T08:41:22.929Z,22.52
2022-12-15T08:43:50.801Z,21.08
2022-12-15T08:46:25.890Z,21.75
2022-12-15T08:48:53.554Z,21.85
2022-12-15T08:51:21.217Z,22.02
2022-12-15T08:53:48.453Z,21.85
2022-12-15T08:56:18.166Z,20.20
2022-12-15T08:58:46.434Z,20.40
2022-12-15T09:01:24.193Z,21.52
2022-12-15T09:03:53.847Z,20.40
2022-12-15T09:06:28.681Z,21.30
2022-12-15T09:09:00.187Z,22.05
2022-12-15T09:11:28.544Z,21.75
2022-12-15T09:13:55.237Z,21.20
2022-12-15T09:16:22.849Z,21.75
2022-12-15T09:18:55.093Z,21.48
2022-12-15T09:21:25.118Z,20.92
2022-12-15T09:23:54.146Z,20.65
2022-12-15T09:26:23.310Z,20.98
2022-12-15T09:28:51.167Z,20.80
2022-12-15T09:31:24.364Z,21.27
2022-12-15T09:33:53.345Z,22.00
2022-12-15T09:36:20.450Z,22.65
2022-12-15T09:38:48.515Z,22.30
2022-12-15T09:41:15.136Z,23.88
2022-12-15T09:43:54.554Z,22.27
2022-12-15T09:46:53.262Z,22.42
2022-12-15T09:49:58.051Z,24.92
2022-12-15T09:52:29.138Z,24.73
2022-12-15T09:54:58.432Z,26.27
2022-12-15T09:57:42.945Z,26.45
2022-12-15T10:00:21.855Z,25.38
2022-12-15T10:03:13.700Z,24.00
2022-12-15T10:09:30.548Z,25.17
2022-12-15T10:12:22.545Z,25.75
2022-12-15T10:15:22.083Z,24.60
2022-12-15T10:18:01.184Z,26.98
2022-12-15T10:20:31.321Z,24.63
2022-12-15T10:23:09.144Z,25.40
2022-12-15T10:25:35.746Z,26.63
2022-12-15T10:28:27.790Z,26.38
2022-12-15T10:34:20.377Z,25.40
2022-12-15T10:36:51.726Z,24.77
2022-12-15T10:39:21.372Z,25.30
2022-12-15T10:42:13.759Z,25.40
2022-12-15T10:44:44.267Z,24.98
2022-12-15T10:47:27.504Z,23.92
2022-12-15T10:49:55.869Z,23.38
2022-12-15T10:52:24.193Z,23.75
2022-12-15T10:54:52.932Z,23.27
2022-12-15T10:57:30.394Z,23.73
2022-12-15T11:00:15.277Z,23.42
2022-12-15T11:02:43.009Z,23.27
2022-12-15T11:05:16.761Z,23.55
2022-12-15T11:07:55.130Z,23.02
2022-12-15T11:10:26.373Z,22.38
2022-12-15T11:13:15.990Z,23.38
2022-12-15T11:15:53.465Z,22.88
2022-12-15T11:18:37.998Z,24.23
2022-12-15T11:21:12.122Z,24.02
2022-12-15T11:23:57.050Z,24.38
2022-12-15T11:26:40.258Z,22.95
2022-12-15T11:31:55.441Z,23.02
2022-12-15T11:34:27.583Z,23.75
2022-12-15T11:36:54.506Z,24.00
2022-12-15T11:39:39.726Z,24.10
2022-12-15T11:42:29.566Z,23.27
2022-12-15T11:45:14.892Z,24.10
2022-12-15T11:47:51.867Z,22.20
2022-12-15T11:50:24.688Z,23.83
2022-12-15T11:53:30.650Z,26.38
2022-12-15T11:56:00.252Z,21.83
2022-12-15T11:58:48.755Z,24.67
2022-12-15T12:01:24.431Z,22.83
2022-12-15T12:04:07.763Z,23.20
2022-12-15T12:09:29.587Z,22.50
2022-12-15T12:12:18.794Z,22.10
2022-12-15T12:15:06.910Z,23.35
2022-12-15T12:17:53.691Z,22.08
2022-12-15T12:20:25.097Z,23.30
2022-12-15T12:23:04.695Z,22.73
2022-12-15T12:25:37.788Z,24.15
2022-12-15T12:28:17.884Z,23.50
2022-12-15T12:30:50.262Z,23.95
2022-12-15T12:33:49.220Z,24.75
2022-12-15T12:36:16.723Z,24.13
2022-12-15T12:38:56.178Z,24.60
2022-12-15T12:41:51.587Z,23.83
2022-12-15T12:44:30.911Z,23.13
2022-12-15T12:47:05.027Z,23.08
2022-12-15T12:49:57.783Z,24.40
2022-12-15T12:52:29.698Z,24.17
2022-12-15T12:58:01.607Z,23.58
2022-12-15T13:00:31.149Z,23.58
2022-12-15T13:03:17.882Z,23.52
2022-12-15T13:05:46.704Z,23.38
2022-12-15T13:08:26.690Z,24.27
2022-12-15T13:10:53.639Z,23.63
2022-12-15T13:13:29.877Z,23.95
2022-12-15T13:16:11.805Z,24.35
2022-12-15T13:18:58.064Z,24.98
2022-12-15T13:21:48.890Z,24.80
2022-12-15T13:24:42.021Z,25.55
2022-12-15T13:27:08.563Z,25.38
2022-12-15T13:29:56.278Z,25.77
2022-12-15T13:32:43.308Z,25.70
2022-12-15T13:35:12.886Z,24.92
2022-12-15T13:37:54.517Z,23.73
2022-12-15T13:40:36.614Z,25.10
2022-12-15T13:43:06.256Z,26.13
2022-12-15T13:45:54.862Z,25.73
2022-12-15T13:48:33.400Z,24.27
2022-12-15T13:51:11.847Z,24.42
2022-12-15T13:53:44.266Z,25.65
2022-12-15T13:56:26.665Z,24.45
2022-12-15T13:59:01.414Z,25.92
2022-12-15T14:01:33.128Z,23.65
2022-12-15T14:04:15.544Z,24.60
2022-12-15T14:06:56.950Z,24.92
2022-12-15T14:09:34.037Z,23.77
2022-12-15T14:12:03.361Z,24.90
2022-12-15T14:14:33.809Z,23.83
2022-12-15T14:17:08.592Z,24.95
2022-12-15T14:19:44.079Z,24.50
2022-12-15T14:22:29.765Z,24.60
2022-12-15T14:25:13.296Z,24.10
2022-12-15T14:27:39.897Z,25.80
2022-12-15T14:30:12.682Z,26.58
2022-12-15T14:32:41.193Z,26.42
2022-12-15T14:35:37.531Z,24.73
2022-12-15T14:38:08.538Z,25.88
2022-12-15T14:40:37.800Z,25.73
2022-12-15T14:43:09.439Z,25.33
2022-12-15T14:45:36.113Z,24.90
2022-12-15T14:51:00.597Z,25.85
2022-12-15T14:53:35.830Z,25.35
2022-12-15T14:56:30.165Z,24.58
2022-12-15T14:59:03.821Z,24.00
2022-12-15T15:01:40.973Z,24.65
2022-12-15T15:03:10.626Z,25.85
2022-12-15T15:03:15.316Z,23.33
2022-12-15T15:04:23.105Z,25.55
2022-12-15T15:06:55.742Z,24.27
2022-12-15T15:09:42.374Z,25.92
2022-12-15T15:12:18.518Z,24.92
2022-12-15T15:14:54.050Z,25.40
2022-12-15T15:17:35.882Z,26.40
2022-12-15T15:20:07.590Z,28.15
2022-12-15T15:22:40.557Z,25.80
2022-12-15T15:25:26.907Z,27.35
2022-12-15T15:28:19.645Z,26.30
2022-12-15T15:30:48.291Z,27.20
2022-12-15T15:33:15.652Z,30.17
2022-12-15T15:35:43.789Z,29.88
2022-12-15T15:38:21.688Z,31.13
2022-12-15T15:40:49.972Z,30.38
2022-12-15T15:43:17.775Z,32.28
2022-12-15T15:45:45.020Z,31.95
2022-12-15T15:48:21.313Z,33.33
2022-12-15T15:50:47.980Z,35.97
2022-12-15T15:53:20.991Z,33.95
2022-12-15T15:55:50.511Z,34.58
2022-12-15T15:58:17.888Z,31.95
2022-12-15T16:00:44.458Z,29.25
2022-12-15T16:03:11.337Z,29.15
2022-12-15T16:05:38.682Z,28.23
2022-12-15T16:08:06.233Z,29.60
2022-12-15T16:10:32.958Z,28.85
2022-12-15T16:13:03.593Z,28.90
2022-12-15T16:15:34.295Z,28.92
2022-12-15T16:18:00.934Z,29.83
2022-12-15T16:20:29.797Z,30.40
2022-12-15T16:23:06.597Z,28.75
2022-12-15T16:25:46.727Z,27.52
2022-12-15T16:28:22.293Z,28.75
2022-12-15T16:30:49.737Z,29.47
2022-12-15T16:33:17.207Z,29.05
2022-12-15T16:35:44.763Z,28.42
2022-12-15T16:38:25.529Z,29.63
2022-12-15T16:40:53.125Z,29.52
2022-12-15T16:43:28.992Z,29.83
2022-12-15T16:46:00.100Z,28.42
2022-12-15T16:48:27.188Z,29.08
2022-12-15T16:50:58.218Z,28.30
2022-12-15T16:53:27.502Z,26.67
2022-12-15T16:55:56.128Z,27.15
2022-12-15T16:58:23.585Z,26.35
2022-12-15T17:00:50.737Z,26.63
2022-12-15T17:03:19.930Z,28.88
2022-12-15T17:05:51.010Z,25.52
2022-12-15T17:08:20.914Z,26.10
2022-12-15T17:10:50.213Z,25.00
2022-12-15T17:13:36.539Z,24.52
2022-12-15T17:16:06.207Z,24.80
2022-12-15T17:18:33.521Z,25.08
2022-12-15T17:21:07.085Z,24.45
2022-12-15T17:23:35.251Z,26.08
2022-12-15T17:26:22.516Z,25.58
2022-12-15T17:28:49.187Z,24.38
2022-12-15T17:31:24.365Z,24.88
2022-12-15T17:33:51.606Z,25.90
2022-12-15T17:36:27.722Z,23.75
2022-12-15T17:39:00.651Z,24.73
2022-12-15T17:41:58.090Z,25.50
2022-12-15T17:44:33.053Z,22.58
2022-12-15T17:47:02.184Z,27.83
2022-12-15T17:49:34.997Z,25.20
2022-12-15T17:52:04.993Z,24.23
2022-12-15T17:54:31.779Z,26.48
2022-12-15T17:56:58.674Z,26.17
2022-12-15T17:59:25.530Z,25.38
2022-12-15T18:01:52.296Z,26.98
2022-12-15T18:04:19.115Z,27.25
2022-12-15T18:06:46.048Z,25.80
2022-12-15T18:09:17.946Z,26.73
2022-12-15T18:11:46.922Z,27.00
2022-12-15T18:14:15.493Z,27.92
2022-12-15T18:16:42.401Z,26.45
2022-12-15T18:19:09.120Z,27.25
2022-12-15T18:21:35.978Z,26.73
2022-12-15T18:24:03.770Z,26.38
2022-12-15T18:26:31.452Z,27.85
2022-12-15T18:28:58.079Z,27.42
2022-12-15T18:31:30.373Z,27.42
2022-12-15T18:34:04.070Z,27.05
2022-12-15T18:36:31.463Z,28.08
2022-12-15T18:38:58.037Z,27.08
2022-12-15T18:41:24.627Z,26.85
2022-12-15T18:43:51.365Z,28.05
2022-12-15T18:46:20.234Z,27.20
2022-12-15T18:48:47.001Z,27.70
2022-12-15T18:51:19.480Z,28.63
2022-12-15T18:53:48.812Z,29.02
2022-12-15T18:56:18.130Z,28.40
2022-12-15T18:58:45.551Z,29.75
2022-12-15T19:01:12.314Z,30.23
2022-12-15T19:03:40.475Z,30.08
2022-12-15T19:06:25.517Z,30.42
2022-12-15T19:08:52.827Z,30.13
2022-12-15T19:11:30.888Z,30.08
2022-12-15T19:13:59.452Z,31.58
2022-12-15T19:16:26.616Z,30.20
2022-12-15T19:19:17.101Z,30.00
2022-12-15T19:22:02.690Z,30.15
2022-12-15T19:24:50.393Z,30.05
2022-12-15T19:27:23.030Z,29.70
2022-12-15T19:29:50.444Z,31.52
2022-12-15T19:32:17.073Z,31.38
2022-12-15T19:34:44.237Z,30.92
2022-12-15T19:37:21.355Z,31.77
2022-12-15T19:39:47.978Z,30.20
2022-12-15T19:42:19.638Z,30.65
2022-12-15T19:44:46.241Z,31.25
2022-12-15T19:47:16.429Z,31.90
2022-12-15T19:49:43.424Z,30.55
2022-12-15T19:52:15.605Z,32.78
2022-12-15T19:54:43.695Z,32.25
2022-12-15T19:57:15.175Z,33.30
2022-12-15T19:59:42.105Z,32.75
2022-12-15T20:02:17.738Z,33.45
2022-12-15T20:04:45.260Z,32.15
2022-12-15T20:07:30.386Z,33.92
2022-12-15T20:09:58.143Z,33.40
2022-12-15T20:12:25.188Z,32.03
2022-12-15T20:14:51.967Z,33.22
2022-12-15T20:17:18.597Z,31.35
2022-12-15T20:19:45.369Z,32.90
2022-12-15T20:22:18.373Z,32.22
2022-12-15T20:24:46.112Z,33.33
2022-12-15T20:27:15.901Z,33.97
2022-12-15T20:29:43.720Z,32.92
2022-12-15T20:32:16.051Z,33.03
2022-12-15T20:34:43.903Z,32.42
2022-12-15T20:37:25.208Z,34.58
2022-12-15T20:39:57.158Z,31.58
2022-12-15T20:42:24.644Z,33.28
2022-12-15T20:44:51.220Z,33.67
2022-12-15T20:47:22.350Z,33.03
2022-12-15T20:49:50.650Z,34.55
2022-12-15T20:56:30.278Z,31.42
2022-12-15T21:03:25.980Z,34.13
2022-12-15T21:10:13.953Z,33.60
2022-12-15T21:17:05.386Z,33.90
2022-12-15T21:23:50.364Z,35.03
2022-12-15T21:30:41.751Z,34.03
2022-12-15T21:42:04.741Z,33.55
2022-12-15T21:49:15.235Z,35.77
2022-12-15T21:51:44.746Z,34.60
2022-12-15T21:58:19.300Z,34.83
2022-12-15T22:05:04.744Z,35.47
2022-12-15T22:18:52.254Z,37.53
2022-12-15T22:25:41.818Z,38.03
2022-12-15T22:28:21.691Z,36.95
2022-12-15T22:35:22.026Z,34.85
2022-12-15T22:46:50.838Z,37.00
2022-12-15T22:49:20.468Z,38.92
2022-12-15T22:51:47.446Z,38.80
2022-12-15T22:54:17.968Z,37.58
2022-12-15T22:56:46.754Z,39.10
2022-12-15T22:59:20.741Z,39.40
2022-12-15T23:01:47.468Z,37.92
2022-12-15T23:04:14.447Z,37.33
2022-12-15T23:06:41.385Z,37.35
2022-12-15T23:09:07.958Z,37.80
2022-12-15T23:11:37.257Z,37.85
2022-12-15T23:14:12.833Z,38.75
2022-12-15T23:16:40.581Z,38.35
2022-12-15T23:19:08.337Z,38.60
2022-12-15T23:21:36.152Z,41.00
2022-12-15T23:24:02.794Z,38.22
2022-12-15T23:26:29.400Z,39.83
2022-12-15T23:28:56.072Z,41.88
2022-12-15T23:31:23.014Z,39.15
2022-12-15T23:33:52.187Z,42.08
2022-12-15T23:36:18.946Z,41.28
2022-12-15T23:38:46.366Z,40.85
2022-12-15T23:41:17.744Z,39.28
2022-12-15T23:43:44.682Z,40.55
2022-12-15T23:46:11.854Z,40.75
2022-12-15T23:48:41.150Z,42.65
2022-12-15T23:51:12.815Z,41.40
2022-12-15T23:53:40.699Z,42.08
2022-12-15T23:56:18.835Z,42.15
2022-12-15T23:58:47.129Z,42.47
